Time;durP1;ratioP1;P1;durP2;ratioP2;P2;SDS_P1;SDS_P2;PMS_P1;PMS_P2;Temp;Humidity;BMP_temperature;BMP_pressure;BME280_temperature;BME280_humidity;BME280_pressure;Samples;Min_cycle;Max_cycle;Signal;HPM_P1;HPM_P2
2022/11/16 00:00:25;;;;;;;;;;;6.90;99.90;;;;;;5011139;28;20670;-73
2022/11/16 00:03:00;;;;;;;;;;;6.90;99.90;;;;;;5004215;28;19925;-74
2022/11/16 00:05:26;;;;;;;;;;;6.90;99.90;;;;;;4986304;28;19930;-74
2022/11/16 00:07:58;;;;;;;;;;;6.90;99.90;;;;;;4994559;28;19976;-88
2022/11/16 00:10:25;;;;;;;;;;;6.90;99.90;;;;;;5027676;28;20392;-74
2022/11/16 00:12:51;;;;;;;;;;;6.90;99.90;;;;;;5011254;28;20446;-74
2022/11/16 00:15:18;;;;;;;;;;;6.90;99.90;;;;;;5009484;28;19926;-74
2022/11/16 00:17:44;;;;;;;;;;;7.00;99.90;;;;;;5026150;28;19925;-74
2022/11/16 00:20:11;;;;;;;;;;;7.00;99.90;;;;;;4989090;28;19987;-75
2022/11/16 00:22:42;;;;;;;;;;;7.00;99.90;;;;;;5027245;28;20446;-74
2022/11/16 00:25:14;;;;;;;;;;;7.00;99.90;;;;;;5026232;28;19980;-74
2022/11/16 00:27:45;;;;;;;;;;;7.00;99.90;;;;;;5026486;28;19976;-75
2022/11/16 00:30:17;;;;;;;;;;;7.00;99.90;;;;;;5027529;28;20295;-74
2022/11/16 00:32:49;;;;;;;;;;;7.00;99.90;;;;;;5012293;28;20343;-73
2022/11/16 00:35:20;;;;;;;;;;;7.10;99.90;;;;;;5009711;28;19953;-75
2022/11/16 00:37:52;;;;;;;;;;;7.00;99.90;;;;;;5002255;28;19929;-74
2022/11/16 00:40:23;;;;;;;;;;;7.10;99.90;;;;;;5010954;28;19926;-74
2022/11/16 00:42:50;;;;;;;;;;;7.10;99.90;;;;;;5027399;28;19999;-76
2022/11/16 00:45:21;;;;;;;;;;;7.00;99.90;;;;;;5001948;28;19929;-74
2022/11/16 00:47:53;;;;;;;;;;;7.10;99.90;;;;;;5008170;28;19925;-75
2022/11/16 00:50:24;;;;;;;;;;;7.10;99.90;;;;;;5002978;28;19932;-74
2022/11/16 00:52:56;;;;;;;;;;;7.10;99.90;;;;;;5027265;28;19929;-74
2022/11/16 00:55:28;;;;;;;;;;;7.10;99.90;;;;;;5025494;28;19926;-75
2022/11/16 00:58:01;;;;;;;;;;;7.10;99.90;;;;;;5002222;28;19925;-74
2022/11/16 01:00:28;;;;;;;;;;;7.10;99.90;;;;;;5026371;28;19936;-76
2022/11/16 01:03:00;;;;;;;;;;;7.10;99.90;;;;;;5022902;28;19933;-74
2022/11/16 01:05:32;;;;;;;;;;;7.10;99.90;;;;;;5006736;28;19979;-74
2022/11/16 01:07:59;;;;;;;;;;;7.10;99.90;;;;;;5010365;28;19956;-77
2022/11/16 01:10:30;;;;;;;;;;;7.10;99.90;;;;;;5007703;28;20377;-74
2022/11/16 01:12:57;;;;;;;;;;;7.10;99.90;;;;;;5010398;28;19933;-75
2022/11/16 01:15:28;;;;;;;;;;;7.10;99.90;;;;;;5006396;28;19984;-75
2022/11/16 01:17:55;;;;;;;;;;;7.10;99.90;;;;;;5010096;28;19933;-75
2022/11/16 01:20:27;;;;;;;;;;;7.10;99.90;;;;;;5009670;28;20418;-74
2022/11/16 01:22:54;;;;;;;;;;;7.10;99.90;;;;;;5018888;28;20016;-76
2022/11/16 01:25:26;;;;;;;;;;;7.10;99.90;;;;;;5009787;28;19932;-76
2022/11/16 01:27:57;;;;;;;;;;;7.10;99.90;;;;;;5023725;28;19925;-76
2022/11/16 01:30:40;;;;;;;;;;;7.20;99.90;;;;;;5007140;28;19976;-74
2022/11/16 01:33:11;;;;;;;;;;;7.20;99.90;;;;;;4998673;28;20024;-75
2022/11/16 01:35:43;;;;;;;;;;;7.20;99.90;;;;;;5013571;28;19973;-74
2022/11/16 01:38:15;;;;;;;;;;;7.10;99.90;;;;;;5010238;28;19929;-75
2022/11/16 01:40:47;;;;;;;;;;;7.10;99.90;;;;;;5026879;28;19930;-74
2022/11/16 01:43:21;;;;;;;;;;;7.10;99.90;;;;;;5026608;28;19932;-74
2022/11/16 01:45:59;;;;;;;;;;;7.00;99.90;;;;;;5003087;28;19932;-74
2022/11/16 01:48:31;;;;;;;;;;;7.10;99.90;;;;;;5007892;28;20304;-74
2022/11/16 01:51:03;;;;;;;;;;;7.10;99.90;;;;;;4987823;28;20408;-74
2022/11/16 01:53:30;;;;;;;;;;;7.10;99.90;;;;;;5017275;28;20438;-75
2022/11/16 01:56:02;;;;;;;;;;;7.10;99.90;;;;;;5010267;28;20351;-74
2022/11/16 01:59:13;;;;;;;;;;;7.10;99.90;;;;;;5002789;28;19925;-74
2022/11/16 02:01:45;;;;;;;;;;;7.10;99.90;;;;;;5029451;28;19936;-75
2022/11/16 02:04:12;;;;;;;;;;;7.10;99.90;;;;;;5011497;28;19940;-74
2022/11/16 02:06:56;;;;;;;;;;;7.10;99.90;;;;;;5009460;28;19976;-75
2022/11/16 02:12:16;;;;;;;;;;;7.10;99.90;;;;;;5001745;28;19941;-77
2022/11/16 02:14:47;;;;;;;;;;;7.10;99.90;;;;;;5012008;28;20423;-75
2022/11/16 02:17:24;;;;;;;;;;;7.10;99.90;;;;;;5026493;28;19979;-75
2022/11/16 02:20:15;;;;;;;;;;;7.10;99.90;;;;;;5020687;28;19937;-74
2022/11/16 02:22:56;;;;;;;;;;;7.10;99.90;;;;;;5011793;28;19932;-73
2022/11/16 02:25:39;;;;;;;;;;;7.10;99.90;;;;;;5009483;28;19999;-74
2022/11/16 02:28:23;;;;;;;;;;;7.00;99.90;;;;;;5021860;28;19930;-74
2022/11/16 02:30:59;;;;;;;;;;;7.00;99.90;;;;;;5012724;28;19929;-74
2022/11/16 02:33:34;;;;;;;;;;;7.10;99.90;;;;;;5019211;28;19929;-75
2022/11/16 02:36:08;;;;;;;;;;;7.10;99.90;;;;;;4998896;28;19937;-73
2022/11/16 02:38:37;;;;;;;;;;;7.10;99.90;;;;;;5012532;28;19929;-73
2022/11/16 02:41:07;;;;;;;;;;;7.10;99.90;;;;;;5012502;28;19941;-74
2022/11/16 02:43:37;;;;;;;;;;;7.10;99.90;;;;;;5019642;28;19929;-73
2022/11/16 02:46:13;;;;;;;;;;;7.10;99.90;;;;;;5006685;28;20020;-73
2022/11/16 02:48:47;;;;;;;;;;;7.10;99.90;;;;;;5010806;28;19980;-76
2022/11/16 02:51:20;;;;;;;;;;;7.10;99.90;;;;;;5017465;28;19933;-76
2022/11/16 02:54:02;;;;;;;;;;;7.10;99.90;;;;;;5004780;28;19926;-75
2022/11/16 02:56:40;;;;;;;;;;;7.10;99.90;;;;;;5015965;28;19926;-76
2022/11/16 02:59:07;;;;;;;;;;;7.20;99.90;;;;;;5028283;28;19969;-76
2022/11/16 03:01:43;;;;;;;;;;;7.20;99.90;;;;;;5012307;28;19926;-76
2022/11/16 03:04:20;;;;;;;;;;;7.10;99.90;;;;;;5002287;28;20300;-75
2022/11/16 03:06:52;;;;;;;;;;;7.10;99.90;;;;;;5018900;28;20609;-76
2022/11/16 03:09:23;;;;;;;;;;;7.10;99.90;;;;;;5010429;28;20399;-74
2022/11/16 03:11:58;;;;;;;;;;;7.10;99.90;;;;;;5019729;28;19929;-74
2022/11/16 03:14:51;;;;;;;;;;;7.10;99.90;;;;;;5022060;28;19944;-75
2022/11/16 03:17:26;;;;;;;;;;;7.10;99.90;;;;;;5025892;28;20032;-76
2022/11/16 03:19:57;;;;;;;;;;;7.20;99.90;;;;;;5019572;28;19968;-74
2022/11/16 03:22:33;;;;;;;;;;;7.20;99.90;;;;;;5011756;28;19967;-76
2022/11/16 03:25:01;;;;;;;;;;;7.20;99.90;;;;;;5019173;28;19972;-76
2022/11/16 03:27:38;;;;;;;;;;;7.20;99.90;;;;;;5011173;28;19950;-75
2022/11/16 03:30:11;;;;;;;;;;;7.20;99.90;;;;;;5000992;28;19929;-72
2022/11/16 03:32:53;;;;;;;;;;;7.20;99.90;;;;;;5011172;28;19930;-75
2022/11/16 03:35:26;;;;;;;;;;;7.30;99.90;;;;;;5015849;28;19926;-75
2022/11/16 03:37:58;;;;;;;;;;;7.30;99.90;;;;;;5006131;28;20003;-75
2022/11/16 03:40:32;;;;;;;;;;;7.30;99.90;;;;;;5012339;28;20023;-75
2022/11/16 03:43:00;;;;;;;;;;;7.30;99.90;;;;;;5019585;28;19980;-75
2022/11/16 03:45:32;;;;;;;;;;;7.30;99.90;;;;;;5009036;28;19930;-74
2022/11/16 03:48:05;;;;;;;;;;;7.30;99.90;;;;;;5026659;28;19929;-75
2022/11/16 03:50:37;;;;;;;;;;;7.20;99.90;;;;;;5023661;28;19930;-75
2022/11/16 03:53:03;;;;;;;;;;;7.30;99.90;;;;;;5019492;28;19979;-74
2022/11/16 03:55:30;;;;;;;;;;;7.30;99.90;;;;;;5026082;28;19929;-75
2022/11/16 03:58:03;;;;;;;;;;;7.20;99.90;;;;;;5010755;28;19926;-77
2022/11/16 04:00:34;;;;;;;;;;;7.20;99.90;;;;;;5023554;28;20007;-76
2022/11/16 04:03:09;;;;;;;;;;;7.30;99.90;;;;;;5006260;28;19932;-78
2022/11/16 04:25:17;;;;;;;;;;;7.30;99.90;;;;;;5022076;28;19933;-74
2022/11/16 04:39:30;;;;;;;;;;;7.50;99.90;;;;;;5010976;28;19926;-75
2022/11/16 04:42:16;;;;;;;;;;;7.50;99.90;;;;;;4999335;28;19992;-74
2022/11/16 04:47:42;;;;;;;;;;;7.50;99.90;;;;;;5001502;28;19925;-75
2022/11/16 04:50:15;;;;;;;;;;;7.50;99.90;;;;;;5013328;28;20299;-75
2022/11/16 04:52:48;;;;;;;;;;;7.50;99.90;;;;;;5011006;28;19933;-74
2022/11/16 04:55:19;;;;;;;;;;;7.50;99.90;;;;;;5009954;28;19926;-77
2022/11/16 04:57:47;;;;;;;;;;;7.50;99.90;;;;;;5006720;28;19929;-75
2022/11/16 05:00:15;;;;;;;;;;;7.50;99.90;;;;;;5010641;28;19971;-74
2022/11/16 05:02:48;;;;;;;;;;;7.50;99.90;;;;;;5010646;28;19925;-76
2022/11/16 05:05:20;;;;;;;;;;;7.50;99.90;;;;;;5022398;28;20296;-75
2022/11/16 05:07:48;;;;;;;;;;;7.50;99.90;;;;;;5008610;28;19936;-73
2022/11/16 05:10:25;;;;;;;;;;;7.50;99.90;;;;;;5010687;28;19929;-75
2022/11/16 05:12:57;;;;;;;;;;;7.50;99.90;;;;;;5018834;28;19926;-75
2022/11/16 05:15:29;;;;;;;;;;;7.60;99.90;;;;;;5024921;28;19929;-75
2022/11/16 05:18:01;;;;;;;;;;;7.60;99.90;;;;;;5002938;28;20282;-75
2022/11/16 05:26:08;;;;;;;;;;;7.50;99.90;;;;;;5024080;28;19925;-73
2022/11/16 05:28:40;;;;;;;;;;;7.50;99.90;;;;;;5017158;28;19925;-74
2022/11/16 05:31:12;;;;;;;;;;;7.60;99.90;;;;;;5010328;28;19960;-72
2022/11/16 05:33:44;;;;;;;;;;;7.60;99.90;;;;;;5001035;28;20008;-74
2022/11/16 05:36:17;;;;;;;;;;;7.60;99.90;;;;;;5029654;28;19925;-73
2022/11/16 05:38:49;;;;;;;;;;;7.60;99.90;;;;;;5029332;28;19987;-73
2022/11/16 05:41:23;;;;;;;;;;;7.60;99.90;;;;;;5021744;28;20043;-76
2022/11/16 05:43:49;;;;;;;;;;;7.60;99.90;;;;;;5012976;28;19984;-73
2022/11/16 05:46:20;;;;;;;;;;;7.60;99.90;;;;;;5026271;28;19925;-74
2022/11/16 05:48:46;;;;;;;;;;;7.60;99.90;;;;;;5010987;28;19929;-74
2022/11/16 05:51:18;;;;;;;;;;;7.60;99.90;;;;;;5011770;28;19929;-74
2022/11/16 05:53:45;;;;;;;;;;;7.60;99.90;;;;;;5025293;28;19929;-74
2022/11/16 05:56:20;;;;;;;;;;;7.70;99.90;;;;;;5004776;28;19929;-74
2022/11/16 05:58:53;;;;;;;;;;;7.80;99.90;;;;;;5020230;28;19929;-74
2022/11/16 06:01:25;;;;;;;;;;;7.90;99.90;;;;;;5029467;28;19930;-74
2022/11/16 06:04:00;;;;;;;;;;;7.90;99.90;;;;;;5010569;28;20378;-74
2022/11/16 06:06:28;;;;;;;;;;;7.90;99.90;;;;;;5012148;28;19972;-75
2022/11/16 06:08:59;;;;;;;;;;;7.90;99.90;;;;;;5029788;28;19926;-74
2022/11/16 06:11:32;;;;;;;;;;;7.90;99.90;;;;;;5026223;28;19925;-74
2022/11/16 06:14:05;;;;;;;;;;;8.00;99.90;;;;;;5010366;28;20498;-75
2022/11/16 06:16:37;;;;;;;;;;;7.90;99.90;;;;;;5013795;28;20024;-75
2022/11/16 06:19:09;;;;;;;;;;;8.00;99.90;;;;;;5010454;28;19941;-75
2022/11/16 06:21:41;;;;;;;;;;;8.00;99.90;;;;;;5012361;28;19926;-75
2022/11/16 06:24:17;;;;;;;;;;;8.00;99.90;;;;;;5002841;28;19971;-75
2022/11/16 06:26:49;;;;;;;;;;;8.00;99.90;;;;;;5012914;28;20027;-75
2022/11/16 06:29:16;;;;;;;;;;;8.00;99.90;;;;;;5029540;28;19930;-76
2022/11/16 06:31:43;;;;;;;;;;;8.00;99.90;;;;;;5013583;28;19925;-75
2022/11/16 06:34:10;;;;;;;;;;;8.00;99.90;;;;;;5011551;28;19933;-75
2022/11/16 06:36:37;;;;;;;;;;;8.00;99.90;;;;;;5000769;28;19936;-75
2022/11/16 06:39:10;;;;;;;;;;;8.00;99.90;;;;;;5025944;28;19929;-75
2022/11/16 06:41:41;;;;;;;;;;;8.00;99.90;;;;;;5005601;28;19976;-75
2022/11/16 06:44:13;;;;;;;;;;;8.00;99.90;;;;;;5005838;28;19925;-73
2022/11/16 06:46:53;;;;;;;;;;;8.00;99.90;;;;;;5013811;28;19926;-76
2022/11/16 06:49:21;;;;;;;;;;;8.10;99.90;;;;;;4993889;28;20373;-76
2022/11/16 06:51:57;;;;;;;;;;;8.10;99.90;;;;;;5008230;28;19976;-73
2022/11/16 06:54:24;;;;;;;;;;;8.10;99.90;;;;;;5004519;28;19929;-76
2022/11/16 06:56:56;;;;;;;;;;;8.10;99.90;;;;;;5026303;28;20376;-74
2022/11/16 06:59:23;;;;;;;;;;;8.20;99.90;;;;;;5027839;28;19937;-74
2022/11/16 07:01:54;;;;;;;;;;;8.20;99.90;;;;;;5012265;28;19929;-74
2022/11/16 07:04:21;;;;;;;;;;;8.30;99.90;;;;;;5028413;28;19929;-74
2022/11/16 07:06:55;;;;;;;;;;;8.30;99.90;;;;;;5012689;28;20415;-74
2022/11/16 07:09:27;;;;;;;;;;;8.30;99.90;;;;;;5018858;28;20234;-74
2022/11/16 07:11:59;;;;;;;;;;;8.40;99.90;;;;;;5012471;28;19925;-74
2022/11/16 07:14:32;;;;;;;;;;;8.40;99.90;;;;;;5024245;28;19948;-74
2022/11/16 07:16:59;;;;;;;;;;;8.50;99.90;;;;;;5010285;28;19932;-75
2022/11/16 07:19:31;;;;;;;;;;;8.50;99.90;;;;;;5007806;28;19933;-74
2022/11/16 07:22:03;;;;;;;;;;;8.50;99.90;;;;;;5021777;28;19932;-74
2022/11/16 07:24:30;;;;;;;;;;;8.60;99.90;;;;;;5010823;28;19925;-74
2022/11/16 07:27:02;;;;;;;;;;;8.60;99.90;;;;;;5022377;28;20059;-74
2022/11/16 07:29:34;;;;;;;;;;;8.70;99.90;;;;;;5027362;28;19932;-74
2022/11/16 07:32:20;;;;;;;;;;;8.70;99.90;;;;;;5020879;28;19933;-73
2022/11/16 07:35:12;;;;;;;;;;;8.70;99.90;;;;;;5007301;28;19926;-73
2022/11/16 07:37:43;;;;;;;;;;;8.70;99.90;;;;;;5025689;28;19938;-75
2022/11/16 07:40:15;;;;;;;;;;;8.80;99.90;;;;;;5010031;28;20012;-75
2022/11/16 07:42:48;;;;;;;;;;;8.80;99.90;;;;;;5005521;28;20308;-74
2022/11/16 07:45:22;;;;;;;;;;;8.80;99.90;;;;;;5008429;28;20024;-75
2022/11/16 07:48:03;;;;;;;;;;;8.80;99.90;;;;;;5025009;28;19926;-74
2022/11/16 07:50:59;;;;;;;;;;;8.80;99.90;;;;;;4986257;28;19933;-76
2022/11/16 07:53:32;;;;;;;;;;;8.80;99.90;;;;;;5023246;28;19930;-74
2022/11/16 07:55:59;;;;;;;;;;;8.90;99.90;;;;;;5004754;28;19930;-74
2022/11/16 07:58:30;;;;;;;;;;;8.90;99.90;;;;;;5019706;28;20020;-74
2022/11/16 08:01:06;;;;;;;;;;;8.90;99.90;;;;;;5008496;28;19968;-75
2022/11/16 08:03:38;;;;;;;;;;;8.90;99.90;;;;;;5017159;28;20027;-75
2022/11/16 08:06:07;;;;;;;;;;;8.90;99.90;;;;;;5024136;28;19976;-76
2022/11/16 08:08:39;;;;;;;;;;;8.90;99.90;;;;;;4990358;28;19925;-76
2022/11/16 08:11:07;;;;;;;;;;;9.00;99.90;;;;;;5013250;28;19945;-75
2022/11/16 08:13:34;;;;;;;;;;;9.00;99.90;;;;;;5010808;28;20000;-76
2022/11/16 08:16:12;;;;;;;;;;;9.00;99.90;;;;;;5007949;28;19925;-74
2022/11/16 08:18:39;;;;;;;;;;;9.10;99.90;;;;;;4992304;28;19940;-74
2022/11/16 08:21:07;;;;;;;;;;;9.10;99.90;;;;;;5011551;28;19935;-75
2022/11/16 08:23:34;;;;;;;;;;;9.10;99.90;;;;;;5011142;28;19930;-75
2022/11/16 08:26:08;;;;;;;;;;;9.10;99.90;;;;;;5007385;28;20445;-75
2022/11/16 08:28:41;;;;;;;;;;;9.10;99.90;;;;;;5028072;28;19925;-75
2022/11/16 08:31:16;;;;;;;;;;;9.10;99.90;;;;;;5026873;28;20368;-73
2022/11/16 08:33:51;;;;;;;;;;;9.20;99.90;;;;;;5005882;28;20343;-74
2022/11/16 08:36:23;;;;;;;;;;;9.20;99.90;;;;;;5008138;28;19995;-74
2022/11/16 08:38:55;;;;;;;;;;;9.20;99.90;;;;;;5004796;28;19925;-74
2022/11/16 08:41:28;;;;;;;;;;;9.20;99.90;;;;;;5006402;28;19933;-73
2022/11/16 08:44:00;;;;;;;;;;;9.20;99.90;;;;;;5025799;28;20643;-74
2022/11/16 08:46:28;;;;;;;;;;;9.20;99.90;;;;;;5027602;28;20347;-72
2022/11/16 08:49:13;;;;;;;;;;;9.20;99.90;;;;;;5027402;28;20456;-72
2022/11/16 08:51:45;;;;;;;;;;;9.20;99.90;;;;;;5009520;28;19929;-75
2022/11/16 08:54:17;;;;;;;;;;;9.30;99.90;;;;;;5013866;28;19929;-74
2022/11/16 08:56:49;;;;;;;;;;;9.30;99.90;;;;;;5019573;28;19925;-74
2022/11/16 08:59:21;;;;;;;;;;;9.30;99.90;;;;;;5011334;28;19925;-73
2022/11/16 09:01:57;;;;;;;;;;;9.30;99.90;;;;;;4996533;28;19930;-72
2022/11/16 09:04:29;;;;;;;;;;;9.40;99.90;;;;;;5010085;28;19980;-74
2022/11/16 09:07:00;;;;;;;;;;;9.30;99.90;;;;;;5003630;28;20347;-74
2022/11/16 09:09:32;;;;;;;;;;;9.30;99.90;;;;;;5027126;28;19925;-73
2022/11/16 09:12:04;;;;;;;;;;;9.40;99.90;;;;;;5012759;28;19925;-72
2022/11/16 09:14:35;;;;;;;;;;;9.40;99.90;;;;;;5011831;28;20396;-74
2022/11/16 09:17:07;;;;;;;;;;;9.40;99.90;;;;;;5003899;28;19960;-74
2022/11/16 09:19:38;;;;;;;;;;;9.40;99.90;;;;;;5010212;28;19925;-72
2022/11/16 09:22:10;;;;;;;;;;;9.40;99.90;;;;;;5011378;28;19980;-75
2022/11/16 09:24:41;;;;;;;;;;;9.50;99.90;;;;;;5002491;28;19933;-74
2022/11/16 09:27:13;;;;;;;;;;;9.50;99.90;;;;;;5012484;28;20430;-72
2022/11/16 09:29:45;;;;;;;;;;;9.50;99.90;;;;;;5028199;28;20331;-73
2022/11/16 09:32:16;;;;;;;;;;;9.60;99.90;;;;;;5027136;28;19929;-75
2022/11/16 09:34:43;;;;;;;;;;;9.60;99.90;;;;;;5025544;28;20388;-72
2022/11/16 09:37:15;;;;;;;;;;;9.70;99.90;;;;;;5003651;28;19925;-72
2022/11/16 09:39:46;;;;;;;;;;;9.70;99.90;;;;;;5026337;28;19925;-74
2022/11/16 09:42:24;;;;;;;;;;;9.80;99.90;;;;;;5027426;28;19925;-73
2022/11/16 09:45:07;;;;;;;;;;;9.80;99.90;;;;;;5011724;28;19925;-73
2022/11/16 09:47:44;;;;;;;;;;;9.90;99.90;;;;;;5026685;28;19953;-73
2022/11/16 09:50:28;;;;;;;;;;;10.00;99.90;;;;;;4991746;28;19933;-73
2022/11/16 09:53:18;;;;;;;;;;;10.00;99.90;;;;;;5011521;28;19926;-72
2022/11/16 09:55:52;;;;;;;;;;;10.10;99.90;;;;;;5022200;28;19940;-74
2022/11/16 09:58:27;;;;;;;;;;;10.20;99.90;;;;;;5026831;28;19980;-72
2022/11/16 10:01:02;;;;;;;;;;;10.30;99.90;;;;;;5012429;28;19929;-73
2022/11/16 10:03:39;;;;;;;;;;;10.40;99.90;;;;;;5010814;28;19925;-73
2022/11/16 10:06:17;;;;;;;;;;;10.50;99.90;;;;;;5010727;28;19926;-74
2022/11/16 10:08:50;;;;;;;;;;;10.60;99.90;;;;;;4998657;28;19930;-74
2022/11/16 10:11:30;;;;;;;;;;;10.70;99.90;;;;;;5010776;28;19925;-74
2022/11/16 10:14:04;;;;;;;;;;;10.80;99.90;;;;;;5008653;28;20451;-72
2022/11/16 10:16:45;;;;;;;;;;;10.90;99.90;;;;;;5022284;28;19926;-72
2022/11/16 10:19:42;;;;;;;;;;;11.00;99.90;;;;;;5008166;28;19925;-72
2022/11/16 10:22:38;;;;;;;;;;;11.00;99.90;;;;;;4998361;28;20359;-73
2022/11/16 10:25:19;;;;;;;;;;;11.00;99.90;;;;;;5029428;28;19925;-73
2022/11/16 10:28:03;;;;;;;;;;;11.00;99.90;;;;;;5005956;28;19980;-74
2022/11/16 10:30:39;;;;;;;;;;;11.00;99.90;;;;;;5014209;28;20299;-73
2022/11/16 10:33:12;;;;;;;;;;;11.00;99.90;;;;;;5030172;28;19926;-74
2022/11/16 10:35:46;;;;;;;;;;;11.10;99.90;;;;;;5028611;28;19925;-75
2022/11/16 10:38:20;;;;;;;;;;;11.20;99.90;;;;;;5029823;28;19968;-74
2022/11/16 10:40:55;;;;;;;;;;;11.20;99.90;;;;;;5015143;28;20462;-73
2022/11/16 10:43:30;;;;;;;;;;;11.20;99.90;;;;;;5010736;28;20335;-75
2022/11/16 10:46:11;;;;;;;;;;;11.10;99.90;;;;;;5014244;28;19926;-74
2022/11/16 10:48:46;;;;;;;;;;;11.20;99.90;;;;;;5010420;28;19925;-73
2022/11/16 10:51:17;;;;;;;;;;;11.20;99.90;;;;;;5018848;28;19929;-73
2022/11/16 10:53:49;;;;;;;;;;;11.20;99.90;;;;;;5029052;28;19960;-73
2022/11/16 10:56:29;;;;;;;;;;;11.20;99.90;;;;;;5029118;28;19925;-75
2022/11/16 10:59:01;;;;;;;;;;;11.20;99.90;;;;;;5046343;28;19926;-74
2022/11/16 11:01:39;;;;;;;;;;;11.20;99.90;;;;;;5013363;28;19925;-75
2022/11/16 11:04:14;;;;;;;;;;;11.20;99.90;;;;;;5029389;28;19932;-72
2022/11/16 11:06:47;;;;;;;;;;;11.20;99.90;;;;;;5026799;28;19988;-73
2022/11/16 11:09:24;;;;;;;;;;;11.30;99.90;;;;;;5029681;28;19938;-74
2022/11/16 11:14:59;;;;;;;;;;;11.30;99.90;;;;;;5018802;28;20399;-73
2022/11/16 11:17:32;;;;;;;;;;;11.20;99.90;;;;;;4994651;28;19932;-73
2022/11/16 11:20:05;;;;;;;;;;;11.20;99.90;;;;;;5017918;28;20308;-74
2022/11/16 11:22:51;;;;;;;;;;;11.30;99.90;;;;;;5008832;28;20339;-73
2022/11/16 11:25:24;;;;;;;;;;;11.40;99.90;;;;;;5008921;28;19972;-72
2022/11/16 11:28:15;;;;;;;;;;;11.50;99.90;;;;;;5028693;28;19925;-73
2022/11/16 11:31:13;;;;;;;;;;;11.60;99.90;;;;;;5009849;28;19972;-71
2022/11/16 11:33:49;;;;;;;;;;;11.80;99.90;;;;;;4993133;28;19980;-72
2022/11/16 11:36:23;;;;;;;;;;;11.80;99.90;;;;;;5008122;28;19972;-73
2022/11/16 11:38:54;;;;;;;;;;;12.00;99.90;;;;;;5010008;28;19925;-72
2022/11/16 11:41:31;;;;;;;;;;;11.90;99.90;;;;;;5013954;28;19926;-72
2022/11/16 11:44:02;;;;;;;;;;;11.90;99.90;;;;;;5028067;28;19964;-73
2022/11/16 11:46:35;;;;;;;;;;;11.90;99.90;;;;;;5009703;28;19951;-72
2022/11/16 11:49:21;;;;;;;;;;;11.80;99.90;;;;;;5009405;28;19992;-72
2022/11/16 11:51:55;;;;;;;;;;;11.80;99.90;;;;;;4993088;28;19968;-71
2022/11/16 11:54:30;;;;;;;;;;;11.80;99.90;;;;;;4999941;28;20370;-73
2022/11/16 11:57:02;;;;;;;;;;;11.90;99.90;;;;;;4992680;28;19952;-73
2022/11/16 11:59:34;;;;;;;;;;;12.10;99.90;;;;;;4993471;28;19926;-73
2022/11/16 12:02:19;;;;;;;;;;;12.30;99.90;;;;;;4995913;28;19925;-73
2022/11/16 12:05:01;;;;;;;;;;;12.40;99.90;;;;;;5005588;28;19933;-73
2022/11/16 12:07:46;;;;;;;;;;;12.50;99.90;;;;;;5023933;28;19925;-74
2022/11/16 12:10:28;;;;;;;;;;;12.60;99.90;;;;;;5011347;28;20342;-74
2022/11/16 12:13:06;;;;;;;;;;;12.60;99.90;;;;;;5028138;28;19933;-73
2022/11/16 12:15:49;;;;;;;;;;;12.60;99.90;;;;;;5024550;28;20557;-72
2022/11/16 12:18:30;;;;;;;;;;;12.60;99.90;;;;;;5012494;28;19933;-73
2022/11/16 12:21:17;;;;;;;;;;;12.40;99.90;;;;;;5011264;28;20000;-72
2022/11/16 12:23:56;;;;;;;;;;;12.30;99.90;;;;;;5010167;28;19979;-73
2022/11/16 12:26:28;;;;;;;;;;;12.10;99.90;;;;;;5007948;28;19983;-75
2022/11/16 12:29:08;;;;;;;;;;;12.00;99.90;;;;;;4992871;28;20431;-73
2022/11/16 12:31:42;;;;;;;;;;;12.00;99.90;;;;;;4984967;28;19926;-72
2022/11/16 12:34:18;;;;;;;;;;;12.00;99.90;;;;;;5026069;28;20567;-75
2022/11/16 12:36:56;;;;;;;;;;;12.00;99.90;;;;;;5004301;28;19929;-73
2022/11/16 12:39:28;;;;;;;;;;;12.00;99.90;;;;;;5011099;28;20404;-75
2022/11/16 12:41:54;;;;;;;;;;;11.90;99.90;;;;;;5002421;28;19971;-76
2022/11/16 12:44:30;;;;;;;;;;;11.80;99.90;;;;;;5007591;28;19933;-76
2022/11/16 12:46:56;;;;;;;;;;;11.70;99.90;;;;;;5023796;28;19980;-75
2022/11/16 12:49:34;;;;;;;;;;;11.70;99.90;;;;;;5010376;28;19976;-76
2022/11/16 12:52:14;;;;;;;;;;;11.70;99.90;;;;;;5021454;28;19925;-77
2022/11/16 12:54:54;;;;;;;;;;;11.70;99.90;;;;;;5008444;28;20448;-76
2022/11/16 12:57:39;;;;;;;;;;;11.70;99.90;;;;;;5014514;28;19929;-77
2022/11/16 13:00:12;;;;;;;;;;;11.80;99.90;;;;;;5011756;28;19926;-72
2022/11/16 13:02:53;;;;;;;;;;;11.80;99.90;;;;;;5010508;28;19975;-74
2022/11/16 13:05:44;;;;;;;;;;;11.90;99.90;;;;;;5006770;28;19930;-73
2022/11/16 13:08:24;;;;;;;;;;;12.10;99.90;;;;;;5009369;28;19930;-73
2022/11/16 13:11:01;;;;;;;;;;;12.30;99.90;;;;;;5003442;28;20316;-75
2022/11/16 13:13:33;;;;;;;;;;;12.40;99.90;;;;;;5008944;28;19925;-74
2022/11/16 13:16:06;;;;;;;;;;;12.50;99.90;;;;;;5009940;28;19925;-74
2022/11/16 13:18:39;;;;;;;;;;;12.50;99.90;;;;;;5026649;28;19929;-74
2022/11/16 13:21:17;;;;;;;;;;;12.40;99.90;;;;;;5014871;28;20296;-75
2022/11/16 13:24:03;;;;;;;;;;;12.30;99.90;;;;;;5004222;28;19976;-75
2022/11/16 13:26:48;;;;;;;;;;;12.20;99.90;;;;;;5006741;28;20394;-72
2022/11/16 13:29:29;;;;;;;;;;;12.10;99.90;;;;;;5023706;28;19925;-74
2022/11/16 13:31:58;;;;;;;;;;;12.00;99.90;;;;;;5010180;28;19929;-73
2022/11/16 13:34:31;;;;;;;;;;;12.00;99.90;;;;;;4996644;28;20434;-75
2022/11/16 13:37:21;;;;;;;;;;;11.90;99.90;;;;;;4990958;28;19933;-74
2022/11/16 13:39:56;;;;;;;;;;;11.90;99.90;;;;;;5026074;28;19929;-73
2022/11/16 13:42:29;;;;;;;;;;;11.90;99.90;;;;;;5022353;28;20419;-74
2022/11/16 13:45:12;;;;;;;;;;;11.90;99.90;;;;;;5006867;28;19929;-75
2022/11/16 13:47:50;;;;;;;;;;;11.90;99.90;;;;;;5010825;28;19980;-74
2022/11/16 13:50:26;;;;;;;;;;;11.90;99.90;;;;;;5006984;28;19952;-72
2022/11/16 13:53:06;;;;;;;;;;;11.90;99.90;;;;;;4999482;28;19937;-72
2022/11/16 13:55:34;;;;;;;;;;;11.80;99.90;;;;;;5009807;28;19972;-75
2022/11/16 13:58:06;;;;;;;;;;;11.80;99.90;;;;;;5013985;28;19948;-74
2022/11/16 14:00:38;;;;;;;;;;;11.80;99.90;;;;;;5029948;28;19929;-77
2022/11/16 14:03:16;;;;;;;;;;;11.90;99.90;;;;;;5015486;28;19926;-74
2022/11/16 14:05:44;;;;;;;;;;;11.90;99.90;;;;;;5011375;28;19983;-73
2022/11/16 14:08:18;;;;;;;;;;;11.90;99.90;;;;;;5007888;28;19926;-74
2022/11/16 14:10:49;;;;;;;;;;;12.00;99.90;;;;;;5015080;28;19956;-73
2022/11/16 14:13:34;;;;;;;;;;;12.10;99.90;;;;;;5029550;28;19925;-74
2022/11/16 14:16:15;;;;;;;;;;;12.20;99.90;;;;;;5012777;28;19925;-74
2022/11/16 14:18:46;;;;;;;;;;;12.10;99.90;;;;;;5012686;28;19929;-74
2022/11/16 14:21:18;;;;;;;;;;;12.00;99.90;;;;;;5014838;28;20362;-75
2022/11/16 14:23:50;;;;;;;;;;;12.00;99.90;;;;;;5028581;28;19929;-74
2022/11/16 14:26:40;;;;;;;;;;;11.90;99.90;;;;;;5014418;28;20311;-75
2022/11/16 14:29:30;;;;;;;;;;;11.80;99.90;;;;;;5004100;28;19929;-74
2022/11/16 14:32:03;;;;;;;;;;;11.70;99.90;;;;;;5026983;28;19996;-75
2022/11/16 14:34:37;;;;;;;;;;;11.70;99.90;;;;;;4983406;28;19981;-75
2022/11/16 14:37:21;;;;;;;;;;;11.60;99.90;;;;;;5010646;28;19926;-74
2022/11/16 14:40:00;;;;;;;;;;;11.60;99.90;;;;;;5021706;28;19933;-75
2022/11/16 14:42:35;;;;;;;;;;;11.60;99.90;;;;;;5022134;28;19926;-74
2022/11/16 14:45:11;;;;;;;;;;;11.50;99.90;;;;;;5008078;28;19933;-76
2022/11/16 14:47:46;;;;;;;;;;;11.50;99.90;;;;;;5010600;28;19933;-74
2022/11/16 14:50:22;;;;;;;;;;;11.40;99.90;;;;;;5010851;28;19977;-74
2022/11/16 14:52:57;;;;;;;;;;;11.30;99.90;;;;;;5026524;28;19972;-75
2022/11/16 14:55:28;;;;;;;;;;;11.20;99.90;;;;;;5010697;28;19930;-73
2022/11/16 14:58:08;;;;;;;;;;;11.10;99.90;;;;;;5012240;28;19925;-74
2022/11/16 15:00:40;;;;;;;;;;;10.90;99.90;;;;;;5011609;28;19979;-75
2022/11/16 15:03:11;;;;;;;;;;;10.80;99.90;;;;;;5028842;28;19980;-74
2022/11/16 15:05:38;;;;;;;;;;;10.70;99.90;;;;;;5027820;28;19932;-73
2022/11/16 15:08:22;;;;;;;;;;;10.50;99.90;;;;;;4994936;28;19979;-72
2022/11/16 15:10:49;;;;;;;;;;;10.40;99.90;;;;;;4996809;28;19929;-73
2022/11/16 15:13:22;;;;;;;;;;;10.30;99.90;;;;;;5014177;28;20526;-73
2022/11/16 15:16:06;;;;;;;;;;;10.30;99.90;;;;;;5025616;28;19973;-73
2022/11/16 15:18:38;;;;;;;;;;;10.30;99.90;;;;;;5010124;28;19932;-73
2022/11/16 15:21:22;;;;;;;;;;;10.10;99.90;;;;;;5012012;28;19973;-73
2022/11/16 15:23:53;;;;;;;;;;;10.10;99.90;;;;;;5010953;28;19936;-74
2022/11/16 15:26:25;;;;;;;;;;;10.00;99.90;;;;;;5013735;28;20430;-72
2022/11/16 15:28:54;;;;;;;;;;;9.90;99.90;;;;;;5017793;28;20354;-74
2022/11/16 15:31:25;;;;;;;;;;;9.90;99.90;;;;;;5025177;28;20304;-72
2022/11/16 15:33:57;;;;;;;;;;;9.90;99.90;;;;;;5028208;28;19925;-73
2022/11/16 15:36:31;;;;;;;;;;;9.90;99.90;;;;;;5028281;28;20289;-74
2022/11/16 15:39:03;;;;;;;;;;;9.90;99.90;;;;;;5012018;28;19925;-73
2022/11/16 15:41:36;;;;;;;;;;;9.80;99.90;;;;;;5028882;28;19926;-74
2022/11/16 15:44:11;;;;;;;;;;;9.70;99.90;;;;;;5010526;28;19929;-71
2022/11/16 15:46:44;;;;;;;;;;;9.50;99.90;;;;;;5009505;28;20446;-72
2022/11/16 15:49:28;;;;;;;;;;;9.50;99.90;;;;;;5011542;28;19926;-73
2022/11/16 15:52:00;;;;;;;;;;;9.40;99.90;;;;;;5026263;28;19980;-74